Time;durP1;ratioP1;P1;durP2;ratioP2;P2;SDS_P1;SDS_P2;PMS_P1;PMS_P2;Temp;Humidity;BMP_temperature;BMP_pressure;BME280_temperature;BME280_humidity;BME280_pressure;Samples;Min_cycle;Max_cycle;Signal;HPM_P1;HPM_P2
2023/03/15 00:02:24;;;;;;;1999.90;999.90;;;;;;;;;;5088722;28;20213;-63
2023/03/15 00:04:53;;;;;;;1999.90;999.90;;;;;;;;;;5092813;28;20213;-63
2023/03/15 00:07:24;;;;;;;1999.90;999.90;;;;;;;;;;5090345;28;20206;-62
2023/03/15 00:09:52;;;;;;;1999.90;999.90;;;;;;;;;;5084956;28;20201;-63
2023/03/15 00:12:21;;;;;;;1999.90;999.90;;;;;;;;;;5085398;28;20194;-63
2023/03/15 00:14:48;;;;;;;1999.90;999.90;;;;;;;;;;5091267;28;20655;-62
2023/03/15 00:17:16;;;;;;;1999.90;999.90;;;;;;;;;;5091929;28;20189;-62
2023/03/15 00:19:43;;;;;;;1999.90;999.90;;;;;;;;;;5089539;28;20208;-63
2023/03/15 00:22:10;;;;;;;1999.90;999.90;;;;;;;;;;5089641;28;20578;-63
2023/03/15 00:24:37;;;;;;;1999.90;999.90;;;;;;;;;;5090357;28;20307;-62
2023/03/15 00:27:06;;;;;;;1999.90;999.90;;;;;;;;;;5089465;28;20208;-63
2023/03/15 00:29:33;;;;;;;1999.90;999.90;;;;;;;;;;5087722;28;20208;-63
2023/03/15 00:32:00;;;;;;;1999.90;999.90;;;;;;;;;;5089498;28;20194;-63
2023/03/15 00:34:27;;;;;;;1999.90;999.90;;;;;;;;;;5089548;28;20220;-62
2023/03/15 00:36:54;;;;;;;1999.90;999.90;;;;;;;;;;5090249;28;20463;-63
2023/03/15 00:39:24;;;;;;;1999.90;999.90;;;;;;;;;;5090895;28;20681;-62
2023/03/15 00:41:55;;;;;;;1999.90;999.90;;;;;;;;;;5088505;28;20249;-62
2023/03/15 00:44:24;;;;;;;1999.90;999.90;;;;;;;;;;5071573;28;20249;-62
2023/03/15 00:46:51;;;;;;;1999.90;999.90;;;;;;;;;;5090101;28;20252;-62
2023/03/15 00:49:18;;;;;;;1999.90;999.90;;;;;;;;;;5090302;28;20203;-62
2023/03/15 00:51:45;;;;;;;1999.90;999.90;;;;;;;;;;5089672;28;20205;-63
2023/03/15 00:54:12;;;;;;;1999.90;999.90;;;;;;;;;;5091191;28;20435;-63
2023/03/15 00:56:40;;;;;;;1999.90;999.90;;;;;;;;;;5083788;28;20256;-63
2023/03/15 00:59:07;;;;;;;1999.90;999.90;;;;;;;;;;5087148;28;20279;-63
2023/03/15 01:01:37;;;;;;;1999.90;999.90;;;;;;;;;;5089264;28;20594;-63
2023/03/15 01:04:04;;;;;;;1999.90;999.90;;;;;;;;;;5092431;28;20266;-63
2023/03/15 01:06:31;;;;;;;1999.90;999.90;;;;;;;;;;5089885;28;20200;-63
2023/03/15 01:09:00;;;;;;;1999.90;999.90;;;;;;;;;;5093500;28;20193;-61
2023/03/15 01:11:28;;;;;;;1999.90;999.90;;;;;;;;;;5092736;28;20562;-62
2023/03/15 01:13:56;;;;;;;1999.90;999.90;;;;;;;;;;5093818;28;20209;-62
2023/03/15 01:16:23;;;;;;;1999.90;999.90;;;;;;;;;;5090700;28;20201;-61
2023/03/15 01:18:52;;;;;;;1999.90;999.90;;;;;;;;;;5095232;28;20204;-61
2023/03/15 01:21:19;;;;;;;1999.90;999.90;;;;;;;;;;5093682;28;20189;-62
2023/03/15 01:23:46;;;;;;;1999.90;999.90;;;;;;;;;;5095318;28;20224;-62
2023/03/15 01:26:13;;;;;;;1999.90;999.90;;;;;;;;;;5089969;28;20202;-62
2023/03/15 01:28:41;;;;;;;1999.90;999.90;;;;;;;;;;5093365;28;20200;-62
2023/03/15 01:31:10;;;;;;;1999.90;999.90;;;;;;;;;;5090496;28;20798;-62
2023/03/15 01:33:37;;;;;;;1999.90;999.90;;;;;;;;;;5095189;28;20205;-61
2023/03/15 01:36:07;;;;;;;1999.90;999.90;;;;;;;;;;5087959;28;20209;-61
2023/03/15 01:38:34;;;;;;;1999.90;999.90;;;;;;;;;;5095288;28;20199;-63
2023/03/15 01:41:01;;;;;;;1999.90;999.90;;;;;;;;;;5093608;28;20662;-63
2023/03/15 01:43:30;;;;;;;1999.90;999.90;;;;;;;;;;5093414;28;20440;-63
2023/03/15 01:46:03;;;;;;;1999.90;999.90;;;;;;;;;;5091126;28;20455;-63
2023/03/15 01:48:33;;;;;;;1999.90;999.90;;;;;;;;;;5093880;28;20196;-63
2023/03/15 01:51:01;;;;;;;1999.90;999.90;;;;;;;;;;5094335;28;20201;-63
2023/03/15 01:53:30;;;;;;;1999.90;999.90;;;;;;;;;;5087687;28;20308;-61
2023/03/15 01:55:58;;;;;;;1999.90;999.90;;;;;;;;;;5095004;28;20201;-62
2023/03/15 01:58:27;;;;;;;1999.90;999.90;;;;;;;;;;5088757;28;20275;-61
2023/03/15 02:00:54;;;;;;;1999.90;999.90;;;;;;;;;;5094961;28;20284;-61
2023/03/15 02:03:24;;;;;;;1999.90;999.90;;;;;;;;;;5087927;28;20220;-62
2023/03/15 02:05:53;;;;;;;1999.90;999.90;;;;;;;;;;5094894;28;20542;-61
2023/03/15 02:08:21;;;;;;;1999.90;999.90;;;;;;;;;;5084971;28;20443;-61
2023/03/15 02:10:51;;;;;;;1999.90;999.90;;;;;;;;;;5093712;28;20427;-61
2023/03/15 02:13:21;;;;;;;1999.90;999.90;;;;;;;;;;5091407;28;20225;-61
2023/03/15 02:15:49;;;;;;;1999.90;999.90;;;;;;;;;;5090352;28;20274;-60
2023/03/15 02:18:16;;;;;;;1999.90;999.90;;;;;;;;;;5090661;28;20510;-61
2023/03/15 02:20:48;;;;;;;1999.90;999.90;;;;;;;;;;5087587;28;20960;-60
2023/03/15 02:23:16;;;;;;;1999.90;999.90;;;;;;;;;;5090564;28;20225;-60
2023/03/15 02:25:46;;;;;;;1999.90;999.90;;;;;;;;;;5093766;28;20209;-61
2023/03/15 02:28:16;;;;;;;1999.90;999.90;;;;;;;;;;5094027;28;20201;-60
2023/03/15 02:30:43;;;;;;;1999.90;999.90;;;;;;;;;;5092526;28;20197;-61
2023/03/15 02:33:14;;;;;;;1999.90;999.90;;;;;;;;;;5091916;28;20221;-61
2023/03/15 02:35:41;;;;;;;1999.90;999.90;;;;;;;;;;5093094;28;20194;-61
2023/03/15 02:38:08;;;;;;;1999.90;999.90;;;;;;;;;;5094416;28;20259;-61
2023/03/15 02:40:35;;;;;;;1999.90;999.90;;;;;;;;;;5094313;28;20689;-61
2023/03/15 02:43:03;;;;;;;1999.90;999.90;;;;;;;;;;5092430;28;20225;-61
2023/03/15 02:45:33;;;;;;;1999.90;999.90;;;;;;;;;;5092984;28;20578;-61
2023/03/15 02:48:01;;;;;;;1999.90;999.90;;;;;;;;;;5083815;28;20201;-61
2023/03/15 02:50:28;;;;;;;1999.90;999.90;;;;;;;;;;5092236;28;20216;-61
2023/03/15 02:52:55;;;;;;;1999.90;999.90;;;;;;;;;;5087693;28;20224;-62
2023/03/15 02:55:22;;;;;;;1999.90;999.90;;;;;;;;;;5094109;28;20193;-61
2023/03/15 02:57:49;;;;;;;1999.90;999.90;;;;;;;;;;5091741;28;20647;-61
2023/03/15 03:00:16;;;;;;;1999.90;999.90;;;;;;;;;;5093258;28;20205;-62
2023/03/15 03:02:46;;;;;;;1999.90;999.90;;;;;;;;;;5088093;28;20213;-62
2023/03/15 03:05:13;;;;;;;1999.90;999.90;;;;;;;;;;5093505;28;20196;-61
2023/03/15 03:07:41;;;;;;;1999.90;999.90;;;;;;;;;;5075976;28;20197;-61
2023/03/15 03:10:10;;;;;;;1999.90;999.90;;;;;;;;;;5091098;28;20274;-61
2023/03/15 03:12:37;;;;;;;1999.90;999.90;;;;;;;;;;5092676;28;20193;-61
2023/03/15 03:15:05;;;;;;;1999.90;999.90;;;;;;;;;;5090575;28;20201;-61
2023/03/15 03:17:36;;;;;;;1999.90;999.90;;;;;;;;;;5093716;28;20205;-62
2023/03/15 03:20:06;;;;;;;1999.90;999.90;;;;;;;;;;5084404;28;20202;-61
2023/03/15 03:22:33;;;;;;;1999.90;999.90;;;;;;;;;;5085399;28;20221;-61
2023/03/15 03:25:01;;;;;;;1999.90;999.90;;;;;;;;;;5087299;28;20678;-61
2023/03/15 03:27:28;;;;;;;1999.90;999.90;;;;;;;;;;5092177;28;20281;-61
2023/03/15 03:29:55;;;;;;;1999.90;999.90;;;;;;;;;;5089260;28;20565;-62
2023/03/15 03:32:22;;;;;;;1999.90;999.90;;;;;;;;;;5093258;28;20539;-62
2023/03/15 03:34:49;;;;;;;1999.90;999.90;;;;;;;;;;5086418;28;20698;-61
2023/03/15 03:37:19;;;;;;;1999.90;999.90;;;;;;;;;;5093288;28;20686;-62
2023/03/15 03:39:46;;;;;;;1999.90;999.90;;;;;;;;;;5091934;28;20189;-62
2023/03/15 03:42:14;;;;;;;1999.90;999.90;;;;;;;;;;5084635;28;20202;-62
2023/03/15 03:44:41;;;;;;;1999.90;999.90;;;;;;;;;;5091513;28;20267;-62
2023/03/15 03:47:08;;;;;;;1999.90;999.90;;;;;;;;;;5092594;28;20475;-61
2023/03/15 03:49:35;;;;;;;1999.90;999.90;;;;;;;;;;5088282;28;20198;-62
2023/03/15 03:52:02;;;;;;;1999.90;999.90;;;;;;;;;;5090099;28;20201;-62
2023/03/15 03:54:31;;;;;;;1999.90;999.90;;;;;;;;;;5088959;28;20232;-62
2023/03/15 03:56:58;;;;;;;1999.90;999.90;;;;;;;;;;5090168;28;20447;-62
2023/03/15 03:59:25;;;;;;;1999.90;999.90;;;;;;;;;;5091790;28;20627;-62
2023/03/15 04:01:52;;;;;;;1999.90;999.90;;;;;;;;;;5083514;28;20220;-62
2023/03/15 04:04:19;;;;;;;1999.90;999.90;;;;;;;;;;5082448;28;20228;-62
2023/03/15 04:06:46;;;;;;;1999.90;999.90;;;;;;;;;;5087507;28;20443;-62
2023/03/15 04:09:14;;;;;;;1999.90;999.90;;;;;;;;;;5090355;28;20201;-62
2023/03/15 04:11:42;;;;;;;1999.90;999.90;;;;;;;;;;5087679;28;20463;-62
2023/03/15 04:14:10;;;;;;;1999.90;999.90;;;;;;;;;;5091178;28;20441;-62
2023/03/15 04:16:37;;;;;;;1999.90;999.90;;;;;;;;;;5087945;28;20482;-62
2023/03/15 04:19:04;;;;;;;1999.90;999.90;;;;;;;;;;5092042;28;20843;-62
2023/03/15 04:21:32;;;;;;;1999.90;999.90;;;;;;;;;;5086229;28;20197;-62
2023/03/15 04:23:59;;;;;;;1999.90;999.90;;;;;;;;;;5090993;28;20447;-62
2023/03/15 04:26:26;;;;;;;1999.90;999.90;;;;;;;;;;5088131;28;20246;-62
2023/03/15 04:28:55;;;;;;;1999.90;999.90;;;;;;;;;;5089982;28;20194;-63
2023/03/15 04:31:25;;;;;;;1999.90;999.90;;;;;;;;;;5090085;28;20444;-62
2023/03/15 04:33:53;;;;;;;1999.90;999.90;;;;;;;;;;5089513;28;20542;-62
2023/03/15 04:36:20;;;;;;;1999.90;999.90;;;;;;;;;;5087571;28;20790;-62
2023/03/15 04:38:47;;;;;;;1999.90;999.90;;;;;;;;;;5089498;28;20825;-62
2023/03/15 04:41:14;;;;;;;1999.90;999.90;;;;;;;;;;5089139;28;20809;-62
2023/03/15 04:43:41;;;;;;;1999.90;999.90;;;;;;;;;;5090057;28;20443;-62
2023/03/15 04:46:10;;;;;;;1999.90;999.90;;;;;;;;;;5089567;28;20451;-62
2023/03/15 04:48:37;;;;;;;1999.90;999.90;;;;;;;;;;5086164;28;20189;-62
2023/03/15 04:51:04;;;;;;;1999.90;999.90;;;;;;;;;;5091253;28;20909;-62
2023/03/15 04:53:31;;;;;;;1999.90;999.90;;;;;;;;;;5093496;22;20781;-62
2023/03/15 04:55:58;;;;;;;1999.90;999.90;;;;;;;;;;5049361;28;20199;-62
2023/03/15 04:58:25;;;;;;;1999.90;999.90;;;;;;;;;;5046457;28;20852;-61
2023/03/15 05:00:53;;;;;;;1999.90;999.90;;;;;;;;;;5050920;28;20458;-62
2023/03/15 05:03:22;;;;;;;1999.90;999.90;;;;;;;;;;5047925;28;21014;-61
2023/03/15 05:05:49;;;;;;;1999.90;999.90;;;;;;;;;;5051781;28;20191;-61
2023/03/15 05:08:16;;;;;;;1999.90;999.90;;;;;;;;;;5047922;28;20656;-61
2023/03/15 05:10:43;;;;;;;1999.90;999.90;;;;;;;;;;5051639;28;20191;-61
2023/03/15 05:13:10;;;;;;;1999.90;999.90;;;;;;;;;;5049319;28;20198;-61
2023/03/15 05:15:37;;;;;;;1999.90;999.90;;;;;;;;;;5049089;28;20197;-61
2023/03/15 05:18:04;;;;;;;1999.90;999.90;;;;;;;;;;5049726;28;20199;-60
2023/03/15 05:20:33;;;;;;;1999.90;999.90;;;;;;;;;;5050174;28;20205;-60
2023/03/15 05:23:01;;;;;;;1999.90;999.90;;;;;;;;;;5050982;28;20198;-60
2023/03/15 05:25:28;;;;;;;1999.90;999.90;;;;;;;;;;5050203;28;20286;-60
2023/03/15 05:27:56;;;;;;;1999.90;999.90;;;;;;;;;;5050082;28;20202;-60
2023/03/15 05:30:23;;;;;;;1999.90;999.90;;;;;;;;;;5048825;28;20199;-60
2023/03/15 05:32:51;;;;;;;1999.90;999.90;;;;;;;;;;5046660;28;20575;-61
2023/03/15 05:35:18;;;;;;;1999.90;999.90;;;;;;;;;;5048798;28;20210;-61
2023/03/15 05:37:46;;;;;;;1999.90;999.90;;;;;;;;;;5047819;28;20195;-61
2023/03/15 05:40:14;;;;;;;1999.90;999.90;;;;;;;;;;5046749;28;20458;-61
2023/03/15 05:42:41;;;;;;;1999.90;999.90;;;;;;;;;;5030304;28;20203;-60
2023/03/15 05:45:08;;;;;;;1999.90;999.90;;;;;;;;;;5029111;28;20435;-61
2023/03/15 05:47:36;;;;;;;1999.90;999.90;;;;;;;;;;5048417;28;20440;-61
2023/03/15 05:50:03;;;;;;;1999.90;999.90;;;;;;;;;;5050937;28;20826;-60
2023/03/15 05:52:31;;;;;;;1999.90;999.90;;;;;;;;;;5049176;28;20195;-61
2023/03/15 05:55:00;;;;;;;1999.90;999.90;;;;;;;;;;5041559;28;20297;-60
2023/03/15 05:57:27;;;;;;;1999.90;999.90;;;;;;;;;;5041597;28;20656;-61
2023/03/15 05:59:54;;;;;;;1999.90;999.90;;;;;;;;;;5046348;28;20206;-60
2023/03/15 06:02:22;;;;;;;1999.90;999.90;;;;;;;;;;5052591;28;20202;-60
2023/03/15 06:04:49;;;;;;;1999.90;999.90;;;;;;;;;;5044543;28;20618;-61
2023/03/15 06:07:16;;;;;;;1999.90;999.90;;;;;;;;;;5053368;28;20573;-61
2023/03/15 06:09:43;;;;;;;1999.90;999.90;;;;;;;;;;5047672;28;20199;-60
2023/03/15 06:12:12;;;;;;;1999.90;999.90;;;;;;;;;;5051535;28;20203;-60
2023/03/15 06:14:39;;;;;;;1999.90;999.90;;;;;;;;;;5052538;28;20221;-60
2023/03/15 06:17:06;;;;;;;1999.90;999.90;;;;;;;;;;5049297;28;20211;-61
2023/03/15 06:19:33;;;;;;;1999.90;999.90;;;;;;;;;;5050786;28;20202;-60
2023/03/15 06:22:00;;;;;;;1999.90;999.90;;;;;;;;;;5052958;28;20203;-60
2023/03/15 06:24:27;;;;;;;1999.90;999.90;;;;;;;;;;5053237;28;20210;-60
2023/03/15 06:26:55;;;;;;;1999.90;999.90;;;;;;;;;;5051481;28;21779;-60
2023/03/15 06:29:23;;;;;;;1999.90;999.90;;;;;;;;;;5050019;28;20225;-60
2023/03/15 06:31:51;;;;;;;1999.90;999.90;;;;;;;;;;5051901;28;20286;-60
2023/03/15 06:34:19;;;;;;;1999.90;999.90;;;;;;;;;;5053819;28;20286;-61
2023/03/15 06:36:48;;;;;;;1999.90;999.90;;;;;;;;;;5050212;28;20657;-61
2023/03/15 06:39:15;;;;;;;1999.90;999.90;;;;;;;;;;5052790;28;20612;-61
2023/03/15 06:41:42;;;;;;;1999.90;999.90;;;;;;;;;;5048514;28;20194;-61
2023/03/15 06:44:09;;;;;;;1999.90;999.90;;;;;;;;;;5054172;28;20223;-61
2023/03/15 06:46:38;;;;;;;1999.90;999.90;;;;;;;;;;5052993;28;20202;-61
2023/03/15 06:49:05;;;;;;;1999.90;999.90;;;;;;;;;;5052746;28;20195;-61
2023/03/15 06:51:32;;;;;;;1999.90;999.90;;;;;;;;;;5050061;28;20210;-61
2023/03/15 06:53:59;;;;;;;1999.90;999.90;;;;;;;;;;5050630;28;20777;-61
2023/03/15 06:56:26;;;;;;;1999.90;999.90;;;;;;;;;;5051240;28;20210;-61
2023/03/15 06:58:54;;;;;;;1999.90;999.90;;;;;;;;;;5051391;28;20458;-61
2023/03/15 07:01:21;;;;;;;1999.90;999.90;;;;;;;;;;5051335;28;20248;-61
2023/03/15 07:03:49;;;;;;;1999.90;999.90;;;;;;;;;;5053094;28;20217;-61
2023/03/15 07:06:16;;;;;;;1999.90;999.90;;;;;;;;;;5047568;28;20290;-61
2023/03/15 07:08:43;;;;;;;1999.90;999.90;;;;;;;;;;5053544;28;20187;-61
2023/03/15 07:11:10;;;;;;;1999.90;999.90;;;;;;;;;;5045662;28;20446;-66
2023/03/15 07:13:37;;;;;;;1999.90;999.90;;;;;;;;;;5052809;28;20905;-66
2023/03/15 07:16:05;;;;;;;1999.90;999.90;;;;;;;;;;5049232;28;20656;-65
2023/03/15 07:18:33;;;;;;;1999.90;999.90;;;;;;;;;;5052988;28;20735;-67
2023/03/15 07:21:02;;;;;;;1999.90;999.90;;;;;;;;;;5051398;28;20813;-62
2023/03/15 07:23:30;;;;;;;1999.90;999.90;;;;;;;;;;5046273;28;20219;-62
2023/03/15 07:25:57;;;;;;;1999.90;999.90;;;;;;;;;;5047940;28;20669;-62
2023/03/15 07:28:25;;;;;;;1999.90;999.90;;;;;;;;;;5049615;28;20222;-60
2023/03/15 07:30:53;;;;;;;1999.90;999.90;;;;;;;;;;5050897;28;20555;-60
2023/03/15 07:33:21;;;;;;;1999.90;999.90;;;;;;;;;;5042052;28;20222;-65
2023/03/15 07:35:49;;;;;;;1999.90;999.90;;;;;;;;;;5048500;28;20455;-62
2023/03/15 07:38:17;;;;;;;1999.90;999.90;;;;;;;;;;5048506;28;20722;-64
2023/03/15 07:40:44;;;;;;;1999.90;999.90;;;;;;;;;;5052505;28;20679;-63
2023/03/15 07:43:18;;;;;;;1999.90;999.90;;;;;;;;;;5047201;28;20290;-63
2023/03/15 07:45:45;;;;;;;1999.90;999.90;;;;;;;;;;5050399;28;20584;-66
2023/03/15 07:48:12;;;;;;;1999.90;999.90;;;;;;;;;;5044346;28;20450;-61
2023/03/15 07:50:39;;;;;;;1999.90;999.90;;;;;;;;;;5047647;28;20811;-60
2023/03/15 07:53:06;;;;;;;1999.90;999.90;;;;;;;;;;5046011;28;20203;-60
2023/03/15 07:55:35;;;;;;;1999.90;999.90;;;;;;;;;;5033421;28;20198;-60
2023/03/15 07:58:02;;;;;;;1999.90;999.90;;;;;;;;;;5034282;28;20278;-60
2023/03/15 08:00:30;;;;;;;1999.90;999.90;;;;;;;;;;5031639;28;20198;-60
2023/03/15 08:02:57;;;;;;;1999.90;999.90;;;;;;;;;;5043075;28;20198;-60
2023/03/15 08:05:24;;;;;;;1999.90;999.90;;;;;;;;;;5047747;28;20211;-60
2023/03/15 08:07:52;;;;;;;1999.90;999.90;;;;;;;;;;5044642;28;20499;-61
2023/03/15 08:10:19;;;;;;;1999.90;999.90;;;;;;;;;;5044603;28;20198;-61
2023/03/15 08:12:47;;;;;;;1999.90;999.90;;;;;;;;;;5047924;28;20451;-60
2023/03/15 08:15:15;;;;;;;1999.90;999.90;;;;;;;;;;5047672;28;20222;-63
2023/03/15 08:17:42;;;;;;;1999.90;999.90;;;;;;;;;;5035580;28;20869;-62
2023/03/15 08:20:13;;;;;;;1999.90;999.90;;;;;;;;;;5012939;28;20209;-61
2023/03/15 08:22:43;;;;;;;1999.90;999.90;;;;;;;;;;5008529;28;20195;-61
2023/03/15 08:25:11;;;;;;;1999.90;999.90;;;;;;;;;;5014113;28;20254;-61
2023/03/15 08:27:38;;;;;;;1999.90;999.90;;;;;;;;;;5017361;28;20209;-68
2023/03/15 08:30:07;;;;;;;1999.90;999.90;;;;;;;;;;5014208;28;20452;-60
2023/03/15 08:32:34;;;;;;;1999.90;999.90;;;;;;;;;;5017383;28;20194;-60
2023/03/15 08:35:01;;;;;;;1999.90;999.90;;;;;;;;;;5011151;28;20225;-61
2023/03/15 08:37:28;;;;;;;1999.90;999.90;;;;;;;;;;5016225;28;20213;-60
2023/03/15 08:39:59;;;;;;;1999.90;999.90;;;;;;;;;;5009913;28;20207;-61
2023/03/15 08:42:27;;;;;;;1999.90;999.90;;;;;;;;;;5008562;28;20199;-60
2023/03/15 08:44:58;;;;;;;1999.90;999.90;;;;;;;;;;5017979;28;20227;-60
2023/03/15 08:47:27;;;;;;;1999.90;999.90;;;;;;;;;;5017960;28;20667;-60
2023/03/15 08:49:54;;;;;;;1999.90;999.90;;;;;;;;;;5017777;28;20710;-60
2023/03/15 08:52:21;;;;;;;1999.90;999.90;;;;;;;;;;5018466;28;20203;-60
2023/03/15 08:54:48;;;;;;;1999.90;999.90;;;;;;;;;;5025433;28;20223;-60
2023/03/15 08:57:15;;;;;;;1999.90;999.90;;;;;;;;;;5022908;28;20191;-60
2023/03/15 08:59:43;;;;;;;1999.90;999.90;;;;;;;;;;5015064;28;20460;-60
2023/03/15 09:02:11;;;;;;;1999.90;999.90;;;;;;;;;;5016731;28;20206;-60
2023/03/15 09:04:39;;;;;;;1999.90;999.90;;;;;;;;;;5013144;28;20226;-60
2023/03/15 09:07:06;;;;;;;1999.90;999.90;;;;;;;;;;5019256;28;20225;-60
2023/03/15 09:09:33;;;;;;;1999.90;999.90;;;;;;;;;;5015629;28;20198;-59
2023/03/15 09:12:01;;;;;;;1999.90;999.90;;;;;;;;;;5018912;28;20290;-59
2023/03/15 09:14:28;;;;;;;1999.90;999.90;;;;;;;;;;5012782;28;20658;-60
2023/03/15 09:16:56;;;;;;;1999.90;999.90;;;;;;;;;;5015793;28;21003;-60
2023/03/15 09:19:23;;;;;;;1999.90;999.90;;;;;;;;;;5018466;28;20825;-60
2023/03/15 09:21:51;;;;;;;1999.90;999.90;;;;;;;;;;5015844;28;20205;-59
2023/03/15 09:24:18;;;;;;;1999.90;999.90;;;;;;;;;;5015166;28;20560;-60
2023/03/15 09:26:45;;;;;;;1999.90;999.90;;;;;;;;;;5018566;28;20571;-59
2023/03/15 09:29:13;;;;;;;1999.90;999.90;;;;;;;;;;5016450;28;20591;-59
2023/03/15 09:31:40;;;;;;;1999.90;999.90;;;;;;;;;;5032094;28;20206;-59
2023/03/15 09:34:07;;;;;;;1999.90;999.90;;;;;;;;;;5012075;28;20218;-58
2023/03/15 09:36:34;;;;;;;1999.90;999.90;;;;;;;;;;5019985;28;20221;-58
2023/03/15 09:39:03;;;;;;;1999.90;999.90;;;;;;;;;;5020935;28;20203;-59
2023/03/15 09:41:39;;;;;;;1999.90;999.90;;;;;;;;;;5019851;28;20207;-59
2023/03/15 09:44:12;;;;;;;1999.90;999.90;;;;;;;;;;5017558;28;20227;-60
2023/03/15 09:46:40;;;;;;;1999.90;999.90;;;;;;;;;;5022335;28;20822;-59
2023/03/15 09:49:10;;;;;;;1999.90;999.90;;;;;;;;;;5018376;28;20689;-59
2023/03/15 09:51:39;;;;;;;1999.90;999.90;;;;;;;;;;5016198;28;20199;-59
2023/03/15 09:54:12;;;;;;;1999.90;999.90;;;;;;;;;;5022380;28;20234;-60
2023/03/15 09:56:40;;;;;;;1999.90;999.90;;;;;;;;;;5012809;28;20202;-59
2023/03/15 09:59:08;;;;;;;1999.90;999.90;;;;;;;;;;5014281;28;20454;-60
2023/03/15 10:01:36;;;;;;;1999.90;999.90;;;;;;;;;;5016897;28;20210;-62
2023/03/15 10:04:06;;;;;;;1999.90;999.90;;;;;;;;;;5053565;28;20224;-63
2023/03/15 10:06:34;;;;;;;1999.90;999.90;;;;;;;;;;5051048;28;20225;-64
2023/03/15 10:09:02;;;;;;;1999.90;999.90;;;;;;;;;;5054075;28;20205;-59
2023/03/15 10:11:34;;;;;;;1999.90;999.90;;;;;;;;;;5052127;28;20187;-59
2023/03/15 10:14:11;;;;;;;1999.90;999.90;;;;;;;;;;5047375;28;20230;-59
2023/03/15 10:16:40;;;;;;;1999.90;999.90;;;;;;;;;;5053089;28;20214;-65
2023/03/15 10:19:14;;;;;;;1999.90;999.90;;;;;;;;;;5039248;28;21528;-63
2023/03/15 10:21:48;;;;;;;1999.90;999.90;;;;;;;;;;5043417;28;20195;-64
2023/03/15 10:24:19;;;;;;;1999.90;999.90;;;;;;;;;;5041036;28;20237;-64
2023/03/15 10:26:48;;;;;;;1999.90;999.90;;;;;;;;;;5051803;28;20280;-64
2023/03/15 10:29:16;;;;;;;1999.90;999.90;;;;;;;;;;5046654;28;20195;-62
2023/03/15 10:31:51;;;;;;;1999.90;999.90;;;;;;;;;;5052485;28;20201;-63
2023/03/15 10:34:18;;;;;;;1999.90;999.90;;;;;;;;;;5038848;28;20300;-62
2023/03/15 10:36:48;;;;;;;1999.90;999.90;;;;;;;;;;5033551;28;20233;-60
2023/03/15 10:39:27;;;;;;;1999.90;999.90;;;;;;;;;;5037424;28;20624;-60
2023/03/15 10:41:56;;;;;;;1999.90;999.90;;;;;;;;;;5047990;28;20277;-60
2023/03/15 10:44:25;;;;;;;1999.90;999.90;;;;;;;;;;5048085;28;20214;-60
2023/03/15 10:47:02;;;;;;;1999.90;999.90;;;;;;;;;;5053017;28;20218;-60
2023/03/15 10:49:35;;;;;;;1999.90;999.90;;;;;;;;;;5043246;28;20226;-60
2023/03/15 10:52:02;;;;;;;1999.90;999.90;;;;;;;;;;5051400;28;20203;-60
2023/03/15 10:54:32;;;;;;;1999.90;999.90;;;;;;;;;;5065632;22;20233;-62
2023/03/15 10:57:01;;;;;;;1999.90;999.90;;;;;;;;;;5052409;28;20690;-62
2023/03/15 10:59:30;;;;;;;1999.90;999.90;;;;;;;;;;5052325;28;20206;-62
2023/03/15 11:02:15;;;;;;;1999.90;999.90;;;;;;;;;;5049848;28;20202;-62
2023/03/15 11:04:42;;;;;;;1999.90;999.90;;;;;;;;;;5041283;28;20233;-62
2023/03/15 11:07:12;;;;;;;1999.90;999.90;;;;;;;;;;5039768;28;20197;-62
2023/03/15 11:09:40;;;;;;;1999.90;999.90;;;;;;;;;;5048180;28;20577;-62
2023/03/15 11:12:10;;;;;;;1999.90;999.90;;;;;;;;;;5047260;28;20206;-62
2023/03/15 11:14:39;;;;;;;1999.90;999.90;;;;;;;;;;5051966;28;20222;-62
2023/03/15 11:17:07;;;;;;;1999.90;999.90;;;;;;;;;;5043802;28;20283;-59
2023/03/15 11:19:36;;;;;;;1999.90;999.90;;;;;;;;;;5045019;28;20564;-64
2023/03/15 11:22:04;;;;;;;1999.90;999.90;;;;;;;;;;5047846;28;20210;-61
2023/03/15 11:24:32;;;;;;;1999.90;999.90;;;;;;;;;;5049440;28;20730;-59
2023/03/15 11:27:01;;;;;;;1999.90;999.90;;;;;;;;;;5049377;28;20223;-61
2023/03/15 11:29:31;;;;;;;1999.90;999.90;;;;;;;;;;5044910;28;20198;-59
2023/03/15 11:31:59;;;;;;;1999.90;999.90;;;;;;;;;;5047824;28;20547;-61
2023/03/15 11:34:31;;;;;;;1999.90;999.90;;;;;;;;;;5047061;28;20218;-61
2023/03/15 11:37:01;;;;;;;1999.90;999.90;;;;;;;;;;5046163;28;20221;-59
2023/03/15 11:39:33;;;;;;;1999.90;999.90;;;;;;;;;;5048932;28;20222;-61
2023/03/15 11:42:03;;;;;;;1999.90;999.90;;;;;;;;;;5050934;28;20210;-61
2023/03/15 11:44:34;;;;;;;1999.90;999.90;;;;;;;;;;5047342;28;20219;-62
2023/03/15 11:47:04;;;;;;;1999.90;999.90;;;;;;;;;;5037868;28;20225;-62
2023/03/15 11:49:35;;;;;;;1999.90;999.90;;;;;;;;;;5049665;28;20566;-61
2023/03/15 11:52:03;;;;;;;1999.90;999.90;;;;;;;;;;5048859;28;20572;-62
2023/03/15 11:54:31;;;;;;;1999.90;999.90;;;;;;;;;;5045225;28;20230;-62
2023/03/15 11:57:02;;;;;;;1999.90;999.90;;;;;;;;;;5042814;28;20218;-60
2023/03/15 11:59:31;;;;;;;1999.90;999.90;;;;;;;;;;5047550;28;20204;-61
2023/03/15 12:02:01;;;;;;;1999.90;999.90;;;;;;;;;;5045078;28;20198;-62
2023/03/15 12:04:37;;;;;;;1999.90;999.90;;;;;;;;;;5048884;28;20214;-61
2023/03/15 12:07:05;;;;;;;1999.90;999.90;;;;;;;;;;5049800;28;20569;-61
2023/03/15 12:09:50;;;;;;;1999.90;999.90;;;;;;;;;;5047099;28;20195;-61
2023/03/15 12:12:37;;;;;;;1999.90;999.90;;;;;;;;;;5050506;28;20199;-61
2023/03/15 12:15:05;;;;;;;1999.90;999.90;;;;;;;;;;5048711;28;20592;-62
2023/03/15 12:17:43;;;;;;;1999.90;999.90;;;;;;;;;;5050449;28;20743;-62
2023/03/15 12:20:18;;;;;;;1999.90;999.90;;;;;;;;;;5047979;28;20209;-61
2023/03/15 12:22:49;;;;;;;1999.90;999.90;;;;;;;;;;5047107;28;20198;-62
2023/03/15 12:25:17;;;;;;;1999.90;999.90;;;;;;;;;;5047591;28;20687;-59
2023/03/15 12:27:47;;;;;;;1999.90;999.90;;;;;;;;;;5048450;28;20206;-59
2023/03/15 12:30:19;;;;;;;1999.90;999.90;;;;;;;;;;5045993;28;20199;-61
2023/03/15 12:32:50;;;;;;;1999.90;999.90;;;;;;;;;;5043086;28;20260;-61
2023/03/15 12:35:20;;;;;;;1999.90;999.90;;;;;;;;;;5050880;28;20215;-61
2023/03/15 12:37:48;;;;;;;1999.90;999.90;;;;;;;;;;5051198;28;20199;-60
2023/03/15 12:40:34;;;;;;;1999.90;999.90;;;;;;;;;;5048525;28;20572;-59
2023/03/15 12:43:03;;;;;;;1999.90;999.90;;;;;;;;;;5047104;28;20202;-63
2023/03/15 12:45:42;;;;;;;1999.90;999.90;;;;;;;;;;5042824;28;20210;-63
2023/03/15 12:48:27;;;;;;;1999.90;999.90;;;;;;;;;;5042798;28;20234;-64
2023/03/15 12:50:58;;;;;;;1999.90;999.90;;;;;;;;;;5025729;28;20201;-61
2023/03/15 12:53:29;;;;;;;1999.90;999.90;;;;;;;;;;5019817;28;20280;-58
2023/03/15 12:55:57;;;;;;;1999.90;999.90;;;;;;;;;;5038066;28;20276;-60
2023/03/15 12:58:28;;;;;;;1999.90;999.90;;;;;;;;;;5021193;28;20668;-59
2023/03/15 13:00:56;;;;;;;1999.90;999.90;;;;;;;;;;5033504;28;20198;-59
2023/03/15 13:03:26;;;;;;;1999.90;999.90;;;;;;;;;;5032005;28;20660;-59
2023/03/15 13:05:59;;;;;;;1999.90;999.90;;;;;;;;;;5027719;28;20924;-59
2023/03/15 13:08:28;;;;;;;1999.90;999.90;;;;;;;;;;5021404;28;20198;-58
2023/03/15 13:11:04;;;;;;;1999.90;999.90;;;;;;;;;;5021655;28;20716;-58
2023/03/15 13:13:41;;;;;;;1999.90;999.90;;;;;;;;;;5032445;28;20729;-58
2023/03/15 13:16:14;;;;;;;1999.90;999.90;;;;;;;;;;5006216;28;20309;-59
2023/03/15 13:18:45;;;;;;;1999.90;999.90;;;;;;;;;;5008979;28;20202;-59
2023/03/15 13:21:16;;;;;;;1999.90;999.90;;;;;;;;;;5013443;28;20626;-60
2023/03/15 13:23:44;;;;;;;1999.90;999.90;;;;;;;;;;5022238;28;20271;-59
2023/03/15 13:26:19;;;;;;;1999.90;999.90;;;;;;;;;;5026304;28;20241;-59
2023/03/15 13:28:49;;;;;;;1999.90;999.90;;;;;;;;;;5019919;28;20205;-60
2023/03/15 13:31:20;;;;;;;1999.90;999.90;;;;;;;;;;5029582;28;20202;-59
2023/03/15 13:33:48;;;;;;;1999.90;999.90;;;;;;;;;;5008136;28;21126;-60
2023/03/15 13:36:18;;;;;;;1999.90;999.90;;;;;;;;;;5014573;28;20206;-59
2023/03/15 13:38:45;;;;;;;1999.90;999.90;;;;;;;;;;5009215;28;20404;-59
2023/03/15 13:41:17;;;;;;;1999.90;999.90;;;;;;;;;;5006188;28;20246;-59
2023/03/15 13:43:44;;;;;;;1999.90;999.90;;;;;;;;;;5008895;28;20218;-59
2023/03/15 13:46:11;;;;;;;1999.90;999.90;;;;;;;;;;5009130;28;20230;-62
2023/03/15 13:48:41;;;;;;;1999.90;999.90;;;;;;;;;;5030312;28;20195;-61
2023/03/15 13:51:12;;;;;;;1999.90;999.90;;;;;;;;;;5044632;28;20664;-62